Airport View

Enter AWOS ICAO identifier for current METAR.

ex. KFNL

KFNL 261156Z AUTO 02004KT 10SM CLR 12/07 A3005 RMK AO2 SLP124 T01220072 10161 20100 55001

26 Jun 2019 12:24

Frequency: 135.075

Phone: 970-669-9187

Other Area AWOS: KGXY - KLMO - KEIK - KBDU

TAF KBJC 261132Z 2612/2712 VRB04KT P6SM FEW150 BKN220 FM262000 12011KT P6SM VCSH FEW090 BKN180 FM270100 16009KT P6SM FEW100 BKN150 FM270400 25007KT P6SM FEW150